Portada
METAR-TAF:

METAR-TAF

Aeroports :

Zonguldak, Turquia

latitud: 41-27N, longitud: 031-48E, altitud: 136 m

Observació

L'informe es va fer fa 32 minuts, a les 04:50 UTC
Vent 5 kt del Sud/Sud-Est
Temperatura 8°C
Humitat 87%
Pressió 1007 hPa
Visibilitat 10 km o més
Núvols disperses a una alçada de 3000 ft
Cel ennuvolat a una alçada de 9000 ft

METAR: LTAS 290450Z 16005KT 9999 SCT030 BKN090 08/06 Q1007

Hora: 08:22 (05:22 UTC)

Pronòstic

L'informe es va fer fa 3 hores i 42 minuts, a les 01:40 UTC
Pronòstic vàlid del 29 a les 03 UTC al 29 a les 12 UTC
Vent 2 kt amb direcció variable
Visibilitat: 4000 m
Núvols disperses a una alçada de 1000 ft
Cel ennuvolat a una alçada de 9000 ft
boirina
Temporalment
l' 29 a les 03 UTC al 29 a les 07 UTC
Cel ennuvolat a una alçada de 3000 ft
Cel ennuvolat a una alçada de 9000 ft
xàfecs de pluja

TAF: LTAS 290140Z 2903/2912 VRB02KT 4000 BR SCT010 BKN090 TEMPO 2903/2907 -SHRA BKN030 BKN090

Observacions i pronòstics meteorològics de més de 4000 aeroports (METAR i TAF).

Les estacions disponibles són els punts grocs i vermells al mapa.

Posi el ratolí al punt desitjat per veure el nom de l'estació.

Feu clic per veure les observacions i els pronòstics meteorològics.

Per canviar el mapa: feu clic els botons verds amb una creu de color negre per apropar; al botó verd amb un guió per allunyar la imatge; o en les fletxes verdes per a mapes adjacents.


METAR-TAF: